Latest Weather Observations for Trepell

IDQ60801

Issued at 10:22 am EST Monday 16 September 2019 (issued every 10 minutes, with the page automatically refreshed every 10 minutes)

About weather observations | Map of weather stations | Latest weather observations for QLD | Other Formats
Station Details ID: 037036 Name: TREPELL AIRPORT Lat: -21.84 Lon: 140.89 Height: 266.2 m
Data from the previous 72 hours. | See also: Recent months at Trepell
Date/Time
EST
Temp
°C
App
Temp
°C
Dew
Point
°C
Rel
Hum
%
Delta-T
°C
Wind Press
QNH
hPa
Press
MSL
hPa
Rain since
9am
mm
Dir  Spd
km/h
Gust
km/h
Spd
kts
Gust
kts
16/10:00am 26.9 19.3 -1.9 15 13.1 N 28 35 15 19 1020.7 1019.5 0.0
16/09:30am 25.5 18.0 -1.3 17 12.2 N 28 35 15 19 1020.9 1019.7 0.0
16/09:00am 24.1 17.0 -4.1 15 12.0 N 24 33 13 18 1020.9 1019.7 0.0
16/08:30am 22.4 16.3 -3.8 17 11.1 N 19 28 10 15 1021.0 1019.8 0.0
16/08:00am 21.2 15.6 -2.6 20 10.2 N 17 24 9 13 1020.4 1019.2 0.0
16/07:30am 19.2 14.0 -3.0 22 9.3 NNE 15 19 8 10 1020.1 1018.9 0.0
16/07:00am 17.2 13.5 -3.0 25 8.3 N 7 9 4 5 1019.9 1018.7 0.0
16/06:30am 15.5 12.3 -3.4 27 7.6 NNE 4 7 2 4 1019.4 1018.3 0.0
16/06:00am 16.5 12.0 -3.0 26 7.9 NNE 11 15 6 8 1019.1 1018.0 0.0
16/05:30am 16.5 11.6 -3.6 25 8.1 NNE 13 17 7 9 1018.8 1017.7 0.0
16/05:00am 14.7 9.6 -5.6 24 7.7 NE 13 13 7 7 1018.6 1017.5 0.0
16/04:30am 15.9 10.0 -5.2 23 8.2 NE 17 20 9 11 1018.2 1017.0 0.0
16/04:00am 14.2 8.6 -6.1 24 7.5 NE 15 17 8 9 1018.0 1016.8 0.0
16/03:30am 13.9 9.1 -6.3 24 7.5 ENE 11 11 6 6 1017.9 1016.7 0.0
16/03:00am 14.8 10.0 -6.1 23 7.8 N 11 15 6 8 1017.8 1016.6 0.0
16/02:30am 16.1 12.2 -5.0 23 8.2 NE 7 11 4 6 1017.9 1016.7 0.0
16/02:00am 14.6 10.2 -5.7 24 7.6 NE 9 13 5 7 1018.0 1016.8 0.0
16/01:30am 15.1 12.4 -6.4 22 8.0 CALM 0 0 0 0 1018.0 1016.8 0.0
16/01:00am 17.4 14.8 -5.1 21 8.8 CALM 0 0 0 0 1018.1 1016.9 0.0
16/12:30am 17.0 14.4 -4.8 22 8.6 CALM 0 0 0 0 1018.4 1017.2 0.0
16/12:00am 17.8 13.9 -4.8 21 9.0 WNW 7 7 4 4 1018.4 1017.2 0.0
 
Date/Time
EST
Temp
°C
App
Temp
°C
Dew
Point
°C
Rel
Hum
%
Delta-T
°C
Wind Press
QNH
hPa
Press
MSL
hPa
Rain since
9am
mm
Dir  Spd
km/h
Gust
km/h
Spd
kts
Gust
kts
15/11:30pm 17.6 13.6 -5.6 20 9.1 W 7 9 4 5 1018.5 1017.4 0.0
15/11:00pm 19.0 13.8 -6.6 17 9.9 NW 13 13 7 7 1018.6 1017.5 0.0
15/10:30pm 18.9 14.0 -6.7 17 9.9 WNW 11 13 6 7 1018.7 1017.6 0.0
15/10:00pm 20.1 15.8 -4.9 18 10.1 NW 9 11 5 6 1018.9 1017.8 0.0
15/09:30pm 20.8 15.9 -7.6 14 11.0 NW 11 13 6 7 1019.0 1017.9 0.0
15/09:00pm 21.8 16.5 -6.8 14 11.4 NW 13 15 7 8 1019.0 1017.9 0.0
15/08:30pm 23.9 19.1 -6.2 13 12.4 NW 11 13 6 7 1018.8 1017.7 0.0
15/08:00pm 24.1 19.2 -7.0 12 12.6 N 11 11 6 6 1018.6 1017.5 0.0
15/07:30pm 24.9 20.3 -7.5 11 13.1 NNE 9 11 5 6 1018.5 1017.4 0.0
15/07:00pm 27.0 23.2 -5.9 11 14.0 NNE 6 9 3 5 1018.3 1017.1 0.0
15/06:30pm 27.7 23.2 -6.6 10 14.5 NNE 9 11 5 6 1018.0 1016.8 0.0
15/06:00pm 29.5 25.6 -6.7 9 15.5 NNE 6 13 3 7 1017.9 1016.7 0.0
15/05:30pm 31.1 27.7 -5.5 9 16.2 S 4 9 2 5 1017.7 1016.5 0.0
15/05:00pm 31.5 27.2 -5.2 9 16.4 NW 9 17 5 9 1017.5 1016.3 0.0
15/04:30pm 31.5 27.5 -5.2 9 16.4 WSW 7 11 4 6 1017.3 1016.1 0.0
15/04:00pm 31.6 26.5 -5.1 9 16.4 ENE 13 22 7 12 1017.4 1016.2 0.0
15/03:30pm 31.8 27.5 -4.9 9 16.5 N 9 15 5 8 1017.3 1016.1 0.0
15/03:00pm 31.2 25.5 -4.0 10 16.0 N 17 26 9 14 1017.9 1016.7 0.0
15/02:30pm 31.1 26.9 -4.1 10 16.0 NE 9 15 5 8 1018.1 1016.9 0.0
15/02:00pm 31.8 26.9 -3.5 10 16.3 NW 13 22 7 12 1018.6 1017.5 0.0
15/01:30pm 30.8 25.3 -5.7 9 16.1 N 15 30 8 16 1019.1 1018.0 0.0
15/01:00pm 31.3 26.3 -3.9 10 16.0 NE 13 26 7 14 1019.6 1018.5 0.0
15/12:30pm 30.5 24.3 -3.3 11 15.5 NNE 20 30 11 16 1020.2 1019.0 0.0
15/12:00pm 30.7 24.3 -1.9 12 15.3 NNE 22 32 12 17 1020.6 1019.4 0.0
15/11:30am 30.4 24.3 -2.2 12 15.2 NNE 20 37 11 20 1021.0 1019.8 0.0
15/11:00am 29.2 23.1 -2.0 13 14.4 N 20 28 11 15 1021.2 1020.0 0.0
15/10:30am 28.4 22.3 -2.6 13 14.2 N 20 26 11 14 1021.6 1020.4 0.0
15/10:00am 27.1 21.0 -3.7 13 13.6 N 19 26 10 14 1021.8 1020.7 0.0
15/09:30am 25.2 18.9 -6.2 12 13.1 NNE 19 26 10 14 1022.1 1021.0 0.0
15/09:00am 23.1 17.0 -7.8 12 12.2 NNE 17 20 9 11 1022.2 1021.1 0.0
15/08:30am 21.7 16.6 -10.0 11 11.8 NE 11 15 6 8 1022.0 1020.9 0.0
15/08:00am 18.2 14.0 -9.7 14 10.0 N 6 6 3 3 1021.7 1020.5 0.0
15/07:30am 14.3 9.6 -9.7 18 8.3 NW 9 13 5 7 1021.4 1020.2 0.0
15/07:00am 11.6 6.5 -9.9 21 7.1 NW 11 15 6 8 1020.8 1019.6 0.0
15/06:30am 11.9 6.7 -11.0 19 7.4 W 11 11 6 6 1020.3 1019.1 0.0
15/06:00am 11.8 6.6 -10.4 20 7.2 W 11 11 6 6 1020.1 1018.9 0.0
15/05:30am 12.2 7.0 -10.7 19 7.5 WNW 11 15 6 8 1019.7 1018.6 0.0
15/05:00am 12.6 7.8 -10.4 19 7.6 WNW 9 11 5 6 1019.4 1018.3 0.0
15/04:30am 13.4 8.6 -11.1 17 8.1 W 9 11 5 6 1019.2 1018.1 0.0
15/04:00am 12.9 8.0 -11.5 17 7.9 W 9 11 5 6 1019.0 1017.9 0.0
15/03:30am 13.8 9.3 -11.5 16 8.3 W 7 9 4 5 1018.9 1017.8 0.0
15/03:00am 14.7 9.4 -11.6 15 8.7 W 11 13 6 7 1019.0 1017.9 0.0
15/02:30am 13.6 8.3 -11.7 16 8.3 W 11 13 6 7 1019.2 1018.1 0.0
15/02:00am 14.9 10.4 -11.5 15 8.8 WSW 7 11 4 6 1019.2 1018.1 0.0
15/01:30am 13.1 8.8 -11.4 17 8.0 WNW 6 7 3 4 1019.3 1018.2 0.0
15/01:00am 14.5 9.6 -12.6 14 8.7 WSW 9 11 5 6 1019.4 1018.3 0.0
15/12:30am 15.3 10.8 -12.0 14 9.1 WSW 7 9 4 5 1019.7 1018.6 0.0
15/12:00am 14.6 10.0 -12.6 14 8.8 SW 7 11 4 6 1019.7 1018.6 0.0
 
Date/Time
EST
Temp
°C
App
Temp
°C
Dew
Point
°C
Rel
Hum
%
Delta-T
°C
Wind Press
QNH
hPa
Press
MSL
hPa
Rain since
9am
mm
Dir  Spd
km/h
Gust
km/h
Spd
kts
Gust
kts
14/11:30pm 16.2 13.1 -11.3 14 9.4 CALM 0 0 0 0 1019.9 1018.7 0.0
14/11:00pm 18.7 14.8 -11.2 12 10.5 S 4 7 2 4 1020.0 1018.8 0.0
14/10:30pm 20.1 16.2 -11.2 11 11.2 SSW 4 6 2 3 1020.0 1018.8 0.0
14/10:00pm 19.8 15.9 -11.5 11 11.1 SSW 4 6 2 3 1020.1 1018.9 0.0
14/09:30pm 19.0 14.1 -12.1 11 10.8 S 9 11 5 6 1020.2 1019.0 0.0
14/09:00pm 21.4 16.2 -11.4 10 11.8 SSE 11 13 6 7 1020.2 1019.0 0.0
14/08:30pm 22.9 17.4 -10.3 10 12.5 S 13 13 7 7 1020.0 1018.8 0.0
14/08:00pm 23.5 17.9 -11.2 9 12.9 S 13 13 7 7 1019.7 1018.6 0.0
14/07:30pm 24.4 18.8 -10.5 9 13.3 S 13 15 7 8 1019.6 1018.5 0.0
14/07:00pm 23.8 18.7 -5.3 14 12.1 SSE 13 15 7 8 1019.4 1018.3 0.0
14/06:30pm 26.3 20.7 -6.5 11 13.7 SSE 15 17 8 9 1019.2 1018.1 0.0
14/06:00pm 29.4 23.5 -9.9 7 15.9 SSE 15 19 8 10 1019.0 1017.9 0.0
14/05:30pm 30.6 24.6 -11.0 6 16.7 SE 15 20 8 11 1018.9 1017.8 0.0
14/05:00pm 31.2 26.0 -10.6 6 17.0 SSE 11 20 6 11 1018.8 1017.7 0.0
14/04:30pm 32.0 27.4 -8.1 7 17.1 SE 9 17 5 9 1018.8 1017.7 0.0
14/04:00pm 31.4 24.7 -10.4 6 17.1 SE 19 24 10 13 1018.8 1017.7 0.0
14/03:30pm 32.1 25.4 -9.9 6 17.4 SE 19 28 10 15 1019.0 1017.9 0.0
14/03:00pm 32.1 25.3 -9.9 6 17.4 SSE 20 28 11 15 1019.2 1018.1 0.0
14/02:30pm 31.7 25.6 -8.3 7 17.0 SSE 17 28 9 15 1019.6 1018.5 0.0
14/02:00pm 32.0 26.2 -8.1 7 17.1 SSE 15 24 8 13 1020.0 1018.8 0.0
14/01:30pm 31.4 25.2 -8.5 7 16.9 SE 17 24 9 13 1020.6 1019.4 0.0
14/01:00pm 31.1 26.4 -8.7 7 16.7 ESE 9 19 5 10 1021.2 1020.0 0.0
14/12:30pm 31.5 25.9 -6.7 8 16.7 ESE 15 26 8 14 1021.6 1020.4 0.0
14/12:00pm 31.0 25.6 -8.8 7 16.6 E 13 26 7 14 1022.1 1021.0 0.0
14/11:30am 30.2 24.7 -9.4 7 16.3 ESE 13 20 7 11 1022.7 1021.6 0.0
14/11:00am 30.0 23.3 -7.8 8 15.9 ESE 20 28 11 15 1023.2 1022.1 0.0
14/10:30am 29.2 22.2 -6.9 9 15.4 ESE 22 28 12 15 1023.5 1022.4 0.0
14/10:00am 26.7 22.1 -7.4 10 14.0 SSE 9 13 5 7 1023.9 1022.7 0.0
14/09:30am 24.6 19.8 -5.6 13 12.6 ESE 11 17 6 9 1024.1 1022.9 0.0
14/09:00am 21.8 17.1 -8.8 12 11.7 SSE 9 15 5 8 1023.9 1022.7 0.0
14/08:30am 19.9 15.6 -8.4 14 10.7 SSW 7 11 4 6 1023.7 1022.6 0.0
14/08:00am 17.5 13.3 -7.8 17 9.4 WSW 7 9 4 5 1023.5 1022.4 0.0
14/07:30am 14.4 10.2 -7.6 21 7.9 W 7 9 4 5 1023.2 1022.1 0.0
14/07:00am 12.1 7.5 -8.4 23 7.0 WSW 9 11 5 6 1022.6 1021.5 0.0
14/06:30am 10.6 6.2 -9.6 23 6.6 W 7 9 4 5 1022.3 1021.2 0.0
14/06:00am 10.7 6.6 -9.0 24 6.5 SW 6 7 3 4 1021.9 1020.8 0.0
14/05:30am 12.5 7.9 -7.5 24 7.1 SW 9 9 5 5 1021.6 1020.4 0.0
14/05:00am 12.8 8.7 -6.7 25 7.0 WSW 7 9 4 5 1021.3 1020.1 0.0
14/04:30am 12.5 8.4 -8.6 22 7.3 W 6 7 3 4 1021.1 1019.9 0.0
14/04:00am 13.9 9.9 -7.4 22 7.6 WSW 6 7 3 4 1021.0 1019.8 0.0
14/03:30am 14.6 10.7 -6.8 22 7.9 SW 6 9 3 5 1021.1 1019.9 0.0
14/03:00am 15.0 10.5 -7.1 21 8.1 SW 9 11 5 6 1021.3 1020.1 0.0
14/02:30am 14.1 9.6 -7.3 22 7.7 SSW 9 11 5 6 1021.6 1020.4 0.0
14/02:00am 13.4 8.8 -7.9 22 7.5 SSW 9 19 5 10 1021.7 1020.5 0.0
14/01:30am 15.4 11.4 -7.4 20 8.4 SW 6 7 3 4 1021.7 1020.5 0.0
14/01:00am 15.5 11.5 -6.1 22 8.1 SSW 7 9 4 5 1021.9 1020.8 0.0
14/12:30am 16.2 13.4 -7.4 19 8.7 CALM 0 0 0 0 1021.9 1020.8 0.0
14/12:00am 16.4 11.6 -6.0 21 8.5 S 11 13 6 7 1021.9 1020.8 0.0
 
Date/Time
EST
Temp
°C
App
Temp
°C
Dew
Point
°C
Rel
Hum
%
Delta-T
°C
Wind Press
QNH
hPa
Press
MSL
hPa
Rain since
9am
mm
Dir  Spd
km/h
Gust
km/h
Spd
kts
Gust
kts
13/11:30pm 17.1 12.7 -5.4 21 8.8 S 9 11 5 6 1022.0 1020.9 0.0
13/11:00pm 17.1 14.4 -6.0 20 8.9 CALM 0 0 0 0 1022.2 1021.1 0.0
13/10:30pm 18.8 15.8 -5.3 19 9.6 SSW 2 7 1 4 1022.2 1021.1 0.0
13/10:00pm 18.7 14.0 -5.4 19 9.5 SSW 11 13 6 7 1022.1 1021.0 0.0
13/09:30pm 20.0 15.3 -5.0 18 10.1 S 11 13 6 7 1022.0 1020.9 0.0
13/09:00pm 20.2 15.8 -5.6 17 10.3 S 9 11 5 6 1022.0 1020.9 0.0
13/08:30pm 21.5 17.2 -5.3 16 11.0 S 9 11 5 6 1021.8 1020.7 0.0
13/08:00pm 23.0 18.8 -4.1 16 11.5 SSE 9 11 5 6 1021.6 1020.4 0.0
13/07:30pm 23.9 19.4 -3.4 16 11.8 SSE 11 13 6 7 1021.4 1020.2 0.0
13/07:00pm 23.9 19.3 -1.1 19 11.3 SSE 13 15 7 8 1021.1 1019.9 0.0
13/06:30pm 26.8 21.2 -2.9 14 13.3 SE 17 22 9 12 1020.8 1019.6 0.0
13/06:00pm 28.4 22.3 -2.6 13 14.1 SE 20 24 11 13 1020.7 1019.5 0.0
13/05:30pm 29.4 22.8 -2.9 12 14.8 SE 22 32 12 17 1020.5 1019.3 0.0
13/05:00pm 30.0 23.6 -4.9 10 15.5 SE 20 32 11 17 1020.4 1019.2 0.0
13/04:30pm 30.5 23.8 -4.5 10 15.7 SE 22 35 12 19 1020.4 1019.2 0.0
13/04:00pm 30.0 23.2 -4.9 10 15.5 SSE 22 32 12 17 1020.5 1019.3 0.0
13/03:30pm 30.9 24.9 -3.0 11 15.7 SE 19 26 10 14 1020.6 1019.4 0.0
13/03:00pm 30.3 23.3 -3.4 11 15.3 SE 24 35 13 19 1021.0 1019.8 0.0
13/02:30pm 30.0 23.6 -4.9 10 15.5 SSE 20 30 11 16 1021.2 1020.0 0.0
13/02:00pm 29.6 22.9 -3.9 11 15.0 SE 22 33 12 18 1021.6 1020.4 0.0
13/01:30pm 29.7 23.4 -3.9 11 15.1 ESE 20 32 11 17 1022.1 1021.0 0.0
13/01:00pm 29.0 23.4 -3.2 12 14.6 ESE 17 28 9 15 1022.6 1021.5 0.0
13/12:30pm 28.6 23.3 -3.6 12 14.5 SE 15 24 8 13 1023.0 1021.9 0.0
13/12:00pm 28.5 22.9 -2.6 13 14.1 E 17 28 9 15 1023.7 1022.6 0.0
13/11:30am 27.4 21.2 -3.4 13 13.8 ESE 20 30 11 16 1024.4 1023.2 0.0
13/11:00am 27.6 21.1 -2.3 14 13.6 E 22 32 12 17 1024.9 1023.7 0.0
13/10:30am 26.7 20.6 -2.1 15 13.1 E 20 33 11 18 1025.3 1024.2 0.0

Other formats

Comma delimited format used in spreadsheet applications
http://www.bom.gov.au/fwo/IDQ60801/IDQ60801.94338.axf

JavaScript Object Notation format (JSON) in row-major order
http://www.bom.gov.au/fwo/IDQ60801/IDQ60801.94338.json

Data quality

Most of these data are generated automatically and are frequently updated. Quality checks on data are not normally performed. It is possible for incorrect values to appear. Refer to information at About Latest Weather Observations and please check the disclaimer before using these data.